createdAt,value
2022-07-27T00:01:03.907Z,78.45
2022-07-27T00:05:07.946Z,78.49
2022-07-27T00:09:12.097Z,78.86
2022-07-27T00:13:15.705Z,78.87
2022-07-27T00:17:23.911Z,78.70
2022-07-27T00:21:27.163Z,79.12
2022-07-27T00:25:31.002Z,78.87
2022-07-27T00:29:34.111Z,78.89
2022-07-27T00:33:38.692Z,79.29
2022-07-27T00:37:42.102Z,79.23
2022-07-27T00:41:45.553Z,79.16
2022-07-27T00:45:48.956Z,79.35
2022-07-27T00:49:53.693Z,79.10
2022-07-27T00:53:57.987Z,79.21
2022-07-27T00:58:01.697Z,79.16
2022-07-27T01:02:05.335Z,79.15
2022-07-27T01:06:16.899Z,79.27
2022-07-27T01:10:30.186Z,79.21
2022-07-27T01:14:33.648Z,79.47
2022-07-27T01:18:39.248Z,79.35
2022-07-27T01:22:43.751Z,79.47
2022-07-27T01:26:47.496Z,79.44
2022-07-27T01:30:51.550Z,79.33
2022-07-27T01:34:54.687Z,79.75
2022-07-27T01:38:59.501Z,80.13
2022-07-27T01:43:02.607Z,79.99
2022-07-27T01:47:14.018Z,79.99
2022-07-27T01:51:17.930Z,80.15
2022-07-27T01:55:22.585Z,80.04
2022-07-27T01:59:25.637Z,80.05
2022-07-27T02:03:28.763Z,80.02
2022-07-27T02:07:32.067Z,80.06
2022-07-27T02:11:54.026Z,80.12
2022-07-27T02:15:58.006Z,79.86
2022-07-27T02:20:01.545Z,80.05
2022-07-27T02:24:04.802Z,79.87
2022-07-27T02:28:09.492Z,80.03
2022-07-27T02:32:12.604Z,79.95
2022-07-27T02:36:16.523Z,80.06
2022-07-27T02:40:20.421Z,79.67
2022-07-27T02:44:26.981Z,79.74
2022-07-27T02:48:30.165Z,79.83
2022-07-27T02:52:33.995Z,79.80
2022-07-27T02:56:37.146Z,79.64
2022-07-27T03:00:41.807Z,79.64
2022-07-27T03:04:45.224Z,79.88
2022-07-27T03:08:48.576Z,79.92
2022-07-27T03:12:52.028Z,79.76
2022-07-27T03:16:56.792Z,79.73
2022-07-27T03:21:00.057Z,79.61
2022-07-27T03:25:03.438Z,79.44
2022-07-27T03:29:06.768Z,79.20
2022-07-27T03:33:11.256Z,79.07
2022-07-27T03:37:15.294Z,79.09
2022-07-27T03:41:18.403Z,79.37
2022-07-27T03:45:21.549Z,79.38
2022-07-27T03:49:26.343Z,79.29
2022-07-27T03:53:29.507Z,79.57
2022-07-27T03:57:32.631Z,79.31
2022-07-27T04:01:36.025Z,79.24
2022-07-27T04:05:40.655Z,79.50
2022-07-27T04:09:44.031Z,79.40
2022-07-27T04:13:50.913Z,79.41
2022-07-27T04:17:57.275Z,79.31
2022-07-27T04:22:02.264Z,79.24
2022-07-27T04:26:05.375Z,79.29
2022-07-27T04:30:10.010Z,79.40
2022-07-27T04:34:13.325Z,79.39
2022-07-27T04:38:17.873Z,79.41
2022-07-27T04:42:21.168Z,79.50
2022-07-27T04:46:24.518Z,79.72
2022-07-27T04:50:27.730Z,79.84
2022-07-27T04:54:35.783Z,79.90
2022-07-27T04:58:39.195Z,80.11
2022-07-27T05:02:43.662Z,80.14
2022-07-27T05:06:46.842Z,80.00
2022-07-27T05:10:51.311Z,80.24
2022-07-27T05:14:54.552Z,79.90
2022-07-27T05:18:58.447Z,80.02
2022-07-27T05:23:01.537Z,80.01
2022-07-27T05:27:06.894Z,80.20
2022-07-27T05:31:10.157Z,80.39
2022-07-27T05:35:13.766Z,80.02
2022-07-27T05:39:17.344Z,80.14
2022-07-27T05:43:22.183Z,79.92
2022-07-27T05:47:25.579Z,79.42
2022-07-27T05:51:30.907Z,79.33
2022-07-27T05:55:34.108Z,78.54
2022-07-27T05:59:38.639Z,77.40
2022-07-27T06:03:42.001Z,77.64
2022-07-27T06:08:00.670Z,77.52
2022-07-27T06:12:04.381Z,76.33
2022-07-27T06:16:09.559Z,75.35
2022-07-27T06:20:13.337Z,74.25
2022-07-27T06:24:16.595Z,73.93
2022-07-27T06:28:20.185Z,73.29
2022-07-27T06:32:24.762Z,73.09
2022-07-27T06:36:27.853Z,72.04
2022-07-27T06:40:32.284Z,72.17
2022-07-27T06:44:35.393Z,71.81
2022-07-27T06:48:40.317Z,69.28
2022-07-27T06:52:43.650Z,69.07
2022-07-27T06:56:47.232Z,68.43
2022-07-27T07:00:50.628Z,67.83
2022-07-27T07:04:55.501Z,67.78
2022-07-27T07:08:58.771Z,67.83
2022-07-27T07:13:06.562Z,66.30
2022-07-27T07:17:09.892Z,66.11
2022-07-27T07:21:16.954Z,65.18
2022-07-27T07:25:20.537Z,64.85
2022-07-27T07:29:23.673Z,64.21
2022-07-27T07:33:27.016Z,63.00
2022-07-27T07:37:33.963Z,62.20
2022-07-27T07:41:37.609Z,60.53
2022-07-27T07:45:51.475Z,60.69
2022-07-27T07:49:55.260Z,60.08
2022-07-27T07:53:59.785Z,59.22
2022-07-27T07:58:02.831Z,59.70
2022-07-27T08:02:06.268Z,59.05
2022-07-27T08:06:09.464Z,58.97
2022-07-27T08:10:16.245Z,58.01
2022-07-27T08:14:19.324Z,58.32
2022-07-27T08:18:22.557Z,57.61
2022-07-27T08:22:25.752Z,57.19
2022-07-27T08:26:30.369Z,57.61
2022-07-27T08:30:33.749Z,56.34
2022-07-27T08:34:37.135Z,56.05
2022-07-27T08:38:40.233Z,56.09
2022-07-27T08:42:45.215Z,55.99
2022-07-27T08:46:53.137Z,55.56
2022-07-27T08:50:56.905Z,55.02
2022-07-27T08:55:00.278Z,55.79
2022-07-27T08:59:07.189Z,55.37
2022-07-27T09:03:18.436Z,54.61
2022-07-27T09:07:31.526Z,55.20
2022-07-27T09:11:36.618Z,55.52
2022-07-27T09:16:15.796Z,55.43
2022-07-27T09:20:17.408Z,55.06
2022-07-27T09:24:45.488Z,55.00
2022-07-27T09:28:46.146Z,54.58
2022-07-27T09:32:59.353Z,54.54
2022-07-27T09:37:05.752Z,53.82
2022-07-27T09:41:09.548Z,53.75
2022-07-27T09:45:34.454Z,54.34
2022-07-27T09:49:40.024Z,54.24
2022-07-27T09:53:44.355Z,54.76
2022-07-27T09:57:54.806Z,54.96
2022-07-27T10:02:00.552Z,54.15
2022-07-27T10:06:05.534Z,54.01
2022-07-27T10:10:10.603Z,54.06
2022-07-27T10:14:14.454Z,53.62
2022-07-27T10:18:25.743Z,53.29
2022-07-27T10:22:51.467Z,52.28
2022-07-27T10:26:55.021Z,51.97
2022-07-27T10:31:17.534Z,52.57
2022-07-27T10:35:34.112Z,51.07
2022-07-27T10:39:41.095Z,50.67
2022-07-27T10:43:44.329Z,51.13
2022-07-27T10:47:50.390Z,52.60
2022-07-27T10:51:54.654Z,51.98
2022-07-27T10:55:59.425Z,52.72
2022-07-27T11:00:09.934Z,52.71
2022-07-27T11:04:15.693Z,52.60
2022-07-27T11:08:47.104Z,52.49
2022-07-27T11:12:50.767Z,52.78
2022-07-27T11:16:56.623Z,52.75
2022-07-27T11:21:19.075Z,52.23
2022-07-27T11:25:25.304Z,52.10
2022-07-27T11:29:35.698Z,52.65
2022-07-27T11:33:57.638Z,53.04
2022-07-27T11:38:03.542Z,53.50
2022-07-27T11:42:12.345Z,53.21
2022-07-27T11:46:24.658Z,53.24
2022-07-27T11:50:27.893Z,53.30
2022-07-27T11:54:33.246Z,53.39
2022-07-27T11:59:15.856Z,54.19
2022-07-27T12:03:32.221Z,54.23
2022-07-27T12:07:49.406Z,54.20
2022-07-27T12:12:03.539Z,51.75
2022-07-27T12:16:07.893Z,51.25
2022-07-27T12:20:14.164Z,51.67
2022-07-27T12:24:18.004Z,52.38
2022-07-27T12:28:25.697Z,51.77
2022-07-27T12:32:31.024Z,52.39
2022-07-27T12:36:42.435Z,51.89
2022-07-27T12:40:48.318Z,52.28
2022-07-27T12:44:53.426Z,52.07
2022-07-27T12:48:56.882Z,51.83
2022-07-27T12:53:01.886Z,52.74
2022-07-27T12:57:05.374Z,53.27
2022-07-27T13:01:08.684Z,51.78
2022-07-27T13:05:13.711Z,50.52
2022-07-27T13:09:18.442Z,51.01
2022-07-27T13:13:24.540Z,50.97
2022-07-27T13:17:28.064Z,51.45
2022-07-27T13:21:31.458Z,50.61
2022-07-27T13:25:41.091Z,51.78
2022-07-27T13:29:46.817Z,51.84
2022-07-27T13:33:50.012Z,51.54
2022-07-27T13:37:53.391Z,51.90
2022-07-27T13:41:58.382Z,52.33
2022-07-27T13:46:03.302Z,52.41
2022-07-27T13:50:15.052Z,52.28
2022-07-27T13:54:20.442Z,53.21
2022-07-27T13:58:25.001Z,53.52
2022-07-27T14:02:28.221Z,53.68
2022-07-27T14:06:31.575Z,54.10
2022-07-27T14:10:41.660Z,53.88
2022-07-27T14:14:46.175Z,54.07
2022-07-27T14:18:49.445Z,54.19
2022-07-27T14:22:52.819Z,54.03
2022-07-27T14:26:57.594Z,53.80
2022-07-27T14:31:05.274Z,53.52
2022-07-27T14:35:10.797Z,53.65
2022-07-27T14:39:14.495Z,53.52
2022-07-27T14:43:18.687Z,53.16
2022-07-27T14:47:23.402Z,53.49
2022-07-27T14:51:26.544Z,53.96
2022-07-27T14:55:29.680Z,54.72
2022-07-27T14:59:33.091Z,54.76
2022-07-27T15:03:37.901Z,54.78
2022-07-27T15:07:41.757Z,54.99
2022-07-27T15:11:44.865Z,55.53
2022-07-27T15:15:49.547Z,55.45
2022-07-27T15:19:54.252Z,56.31
2022-07-27T15:23:57.604Z,56.13
2022-07-27T15:28:00.832Z,56.00
2022-07-27T15:32:04.635Z,56.71
2022-07-27T15:36:09.346Z,56.47
2022-07-27T15:40:30.061Z,56.27
2022-07-27T15:44:33.745Z,56.26
2022-07-27T15:48:37.251Z,56.49
2022-07-27T15:52:42.048Z,55.92
2022-07-27T15:56:45.189Z,55.58
2022-07-27T16:00:50.125Z,55.30
2022-07-27T16:04:54.483Z,55.03
2022-07-27T16:08:59.229Z,55.25
2022-07-27T16:13:02.916Z,54.96
2022-07-27T16:17:06.341Z,54.27
2022-07-27T16:21:09.513Z,54.25
2022-07-27T16:25:14.282Z,54.07
2022-07-27T16:29:18.300Z,54.12
2022-07-27T16:33:21.810Z,53.90
2022-07-27T16:37:25.124Z,53.90
2022-07-27T16:41:29.900Z,53.29
2022-07-27T16:45:33.588Z,53.81
2022-07-27T16:49:37.209Z,54.09
2022-07-27T16:53:42.356Z,54.09
2022-07-27T16:57:46.946Z,53.90
2022-07-27T17:01:51.303Z,54.03
2022-07-27T17:05:54.582Z,54.24
2022-07-27T17:09:57.909Z,54.65
2022-07-27T17:14:02.731Z,54.06
2022-07-27T17:18:07.007Z,54.32
2022-07-27T17:22:11.060Z,54.89
2022-07-27T17:26:14.832Z,54.92
2022-07-27T17:30:19.935Z,55.14
2022-07-27T17:34:23.259Z,54.89
2022-07-27T17:38:26.335Z,54.88
2022-07-27T17:42:29.651Z,55.52
2022-07-27T17:46:38.662Z,55.24
2022-07-27T17:51:03.596Z,55.86
2022-07-27T17:55:10.230Z,56.18
2022-07-27T17:59:36.038Z,56.17
2022-07-27T18:03:38.144Z,56.06
2022-07-27T18:07:41.276Z,55.98
2022-07-27T18:11:44.785Z,56.37
2022-07-27T18:15:48.515Z,56.84
2022-07-27T18:19:53.254Z,57.00
2022-07-27T18:23:57.580Z,56.84
2022-07-27T18:28:01.366Z,56.35
2022-07-27T18:32:04.485Z,57.16
2022-07-27T18:36:09.544Z,57.37
2022-07-27T18:40:13.363Z,56.93
2022-07-27T18:44:16.457Z,57.07
2022-07-27T18:48:19.723Z,57.42
2022-07-27T18:52:24.671Z,56.72
2022-07-27T18:56:27.791Z,56.45
2022-07-27T19:00:31.392Z,57.02
2022-07-27T19:04:35.070Z,57.20
2022-07-27T19:08:41.476Z,57.23
2022-07-27T19:12:45.581Z,57.50
2022-07-27T19:16:48.710Z,57.37
2022-07-27T19:20:51.932Z,57.75
2022-07-27T19:24:56.581Z,57.96
2022-07-27T19:29:00.192Z,58.00
2022-07-27T19:33:04.307Z,58.67
2022-07-27T19:37:07.895Z,58.97
2022-07-27T19:41:12.921Z,58.79
2022-07-27T19:45:16.144Z,58.97
2022-07-27T19:49:19.413Z,59.64
2022-07-27T19:53:22.822Z,59.25
2022-07-27T19:57:27.624Z,59.31
2022-07-27T20:01:31.055Z,59.86
2022-07-27T20:05:34.861Z,59.95
2022-07-27T20:09:38.244Z,60.18
2022-07-27T20:13:43.016Z,60.07
2022-07-27T20:17:46.661Z,60.23
2022-07-27T20:21:49.799Z,60.49
2022-07-27T20:25:53.010Z,60.57
2022-07-27T20:29:57.731Z,61.12
2022-07-27T20:34:01.335Z,60.93
2022-07-27T20:38:04.845Z,61.22
2022-07-27T20:42:08.478Z,60.96
2022-07-27T20:46:13.252Z,60.93
2022-07-27T20:50:19.196Z,61.22
2022-07-27T20:54:29.537Z,61.17
2022-07-27T20:58:34.798Z,61.43
2022-07-27T21:02:40.017Z,61.61
2022-07-27T21:06:44.596Z,61.75
2022-07-27T21:10:48.315Z,61.59
2022-07-27T21:14:53.022Z,62.06
2022-07-27T21:18:57.994Z,62.10
2022-07-27T21:23:18.575Z,62.17
2022-07-27T21:27:21.779Z,62.44
2022-07-27T21:31:25.090Z,62.49
2022-07-27T21:35:30.023Z,62.32
2022-07-27T21:39:33.381Z,62.43
2022-07-27T21:43:36.668Z,62.96
2022-07-27T21:47:39.735Z,63.09
2022-07-27T21:51:44.526Z,63.24
2022-07-27T21:55:47.941Z,63.42
2022-07-27T21:59:51.072Z,63.57
2022-07-27T22:03:54.533Z,63.61
2022-07-27T22:08:00.238Z,63.64
2022-07-27T22:12:03.481Z,63.42
2022-07-27T22:16:07.577Z,63.82
2022-07-27T22:20:12.153Z,63.74
2022-07-27T22:24:17.226Z,64.24
2022-07-27T22:28:24.299Z,64.65
2022-07-27T22:32:29.494Z,64.80
2022-07-27T22:36:33.529Z,65.37
2022-07-27T22:40:38.115Z,65.39
2022-07-27T22:44:42.460Z,65.90
2022-07-27T22:48:45.698Z,66.02
2022-07-27T22:52:49.432Z,66.14
2022-07-27T22:56:54.569Z,66.20
2022-07-27T23:00:59.869Z,66.80
2022-07-27T23:05:03.321Z,66.84
2022-07-27T23:09:06.730Z,66.89
2022-07-27T23:13:12.202Z,67.19
2022-07-27T23:17:15.507Z,67.23
2022-07-27T23:21:18.859Z,67.34
2022-07-27T23:25:22.196Z,67.54
2022-07-27T23:29:27.119Z,67.67
2022-07-27T23:33:30.390Z,67.86
2022-07-27T23:37:33.527Z,68.27
2022-07-27T23:41:36.957Z,68.34
2022-07-27T23:45:41.454Z,68.83
2022-07-27T23:49:44.681Z,69.02
2022-07-27T23:53:48.126Z,69.15
2022-07-27T23:57:51.314Z,69.24
